createdAt,value
2023-01-10T00:03:56.680Z,80.20
2023-01-10T00:08:58.086Z,79.83
2023-01-10T00:13:59.817Z,79.52
2023-01-10T00:19:01.251Z,79.01
2023-01-10T00:24:17.515Z,78.86
2023-01-10T00:29:20.380Z,79.63
2023-01-10T00:34:21.811Z,79.38
2023-01-10T00:39:27.071Z,79.08
2023-01-10T00:44:28.486Z,79.08
2023-01-10T00:49:29.945Z,79.25
2023-01-10T00:54:31.398Z,79.00
2023-01-10T00:59:33.223Z,78.87
2023-01-10T01:04:35.241Z,78.94
2023-01-10T01:09:56.703Z,79.35
2023-01-10T01:14:58.227Z,78.52
2023-01-10T01:19:59.664Z,78.87
2023-01-10T01:25:01.144Z,78.58
2023-01-10T01:30:02.751Z,79.04
2023-01-10T01:35:05.685Z,78.92
2023-01-10T01:40:08.920Z,78.60
2023-01-10T01:45:22.699Z,78.72
2023-01-10T01:50:35.859Z,78.85
2023-01-10T01:55:39.761Z,79.06
2023-01-10T02:00:41.697Z,79.11
2023-01-10T02:05:44.965Z,78.91
2023-01-10T02:11:11.573Z,79.70
2023-01-10T02:16:13.423Z,79.03
2023-01-10T02:21:38.403Z,78.65
2023-01-10T02:26:57.843Z,78.53
2023-01-10T02:32:18.763Z,78.57
2023-01-10T02:37:39.753Z,78.31
2023-01-10T02:43:00.940Z,79.18
2023-01-10T02:48:02.676Z,79.63
2023-01-10T02:53:16.318Z,79.32
2023-01-10T02:58:36.586Z,78.86
2023-01-10T03:04:11.027Z,79.20
2023-01-10T03:09:25.829Z,79.85
2023-01-10T03:14:30.114Z,79.55
2023-01-10T03:19:38.274Z,80.04
2023-01-10T03:24:49.209Z,79.36
2023-01-10T03:30:25.080Z,79.08
2023-01-10T03:35:44.234Z,79.45
2023-01-10T03:40:58.101Z,78.99
2023-01-10T03:46:09.296Z,79.75
2023-01-10T03:51:12.689Z,79.63
2023-01-10T03:56:15.093Z,79.19
2023-01-10T04:01:17.282Z,79.73
2023-01-10T04:06:20.207Z,79.07
2023-01-10T04:11:21.705Z,79.45
2023-01-10T04:16:23.189Z,78.63
2023-01-10T04:21:24.617Z,78.54
2023-01-10T04:26:26.152Z,78.84
2023-01-10T04:31:27.572Z,79.56
2023-01-10T04:36:29.039Z,79.92
2023-01-10T04:41:31.657Z,80.16
2023-01-10T04:46:33.323Z,79.88
2023-01-10T04:51:34.774Z,80.02
2023-01-10T04:56:36.219Z,80.99
2023-01-10T05:01:39.245Z,80.99
2023-01-10T05:06:40.846Z,80.61
2023-01-10T05:11:42.285Z,80.73
2023-01-10T05:16:43.736Z,80.25
2023-01-10T05:21:45.158Z,80.26
2023-01-10T05:26:46.572Z,80.99
2023-01-10T05:31:51.106Z,80.50
2023-01-10T05:36:52.758Z,80.79
2023-01-10T05:41:54.183Z,81.23
2023-01-10T05:46:55.656Z,80.71
2023-01-10T05:51:57.063Z,81.39
2023-01-10T05:56:58.512Z,80.84
2023-01-10T06:02:00.022Z,81.27
2023-01-10T06:07:01.612Z,81.33
2023-01-10T06:12:03.192Z,81.39
2023-01-10T06:17:08.555Z,82.21
2023-01-10T06:22:10.044Z,81.89
2023-01-10T06:27:11.485Z,80.78
2023-01-10T06:32:12.951Z,80.97
2023-01-10T06:37:14.378Z,81.53
2023-01-10T06:42:15.850Z,81.58
2023-01-10T06:47:17.299Z,82.14
2023-01-10T06:52:18.808Z,81.64
2023-01-10T06:57:20.868Z,82.18
2023-01-10T07:02:22.417Z,81.66
2023-01-10T07:07:23.893Z,82.04
2023-01-10T07:12:25.403Z,81.24
2023-01-10T07:17:26.840Z,81.09
2023-01-10T07:22:28.251Z,81.25
2023-01-10T07:27:32.812Z,82.70
2023-01-10T07:32:34.305Z,81.83
2023-01-10T07:37:35.789Z,83.67
2023-01-10T07:42:37.209Z,82.18
2023-01-10T07:47:38.808Z,82.66
2023-01-10T07:52:40.352Z,83.87
2023-01-10T07:57:41.788Z,83.11
2023-01-10T08:02:43.472Z,82.73
2023-01-10T08:07:45.065Z,82.68
2023-01-10T08:12:48.212Z,83.03
2023-01-10T08:17:49.702Z,83.50
2023-01-10T08:22:51.212Z,84.05
2023-01-10T08:27:53.001Z,84.21
2023-01-10T08:32:54.543Z,83.20
2023-01-10T08:38:00.162Z,84.00
2023-01-10T08:43:07.628Z,83.08
2023-01-10T08:48:10.225Z,84.08
2023-01-10T08:53:13.705Z,82.60
2023-01-10T08:58:15.638Z,83.05
2023-01-10T09:03:17.191Z,82.55
2023-01-10T09:08:18.665Z,82.65
2023-01-10T09:13:20.321Z,81.21
2023-01-10T09:18:21.856Z,82.09
2023-01-10T09:23:23.744Z,82.00
2023-01-10T09:28:25.227Z,81.91
2023-01-10T09:33:35.007Z,81.00
2023-01-10T09:38:46.538Z,80.55
2023-01-10T09:43:53.820Z,80.25
2023-01-10T09:49:15.695Z,81.03
2023-01-10T09:54:23.596Z,81.65
2023-01-10T09:59:26.949Z,81.22
2023-01-10T10:04:37.503Z,81.66
2023-01-10T10:09:39.275Z,81.96
2023-01-10T10:14:58.984Z,81.58
2023-01-10T10:20:06.364Z,79.82
2023-01-10T10:25:37.690Z,80.85
2023-01-10T10:31:09.244Z,80.39
2023-01-10T10:36:29.317Z,80.17
2023-01-10T10:41:43.734Z,80.66
2023-01-10T10:46:45.482Z,80.79
2023-01-10T10:51:52.971Z,80.93
2023-01-10T10:56:56.096Z,79.91
2023-01-10T11:01:57.790Z,80.57
2023-01-10T11:07:00.716Z,80.43
2023-01-10T11:12:03.728Z,81.06
2023-01-10T11:17:25.582Z,79.99
2023-01-10T11:22:40.263Z,81.50
2023-01-10T11:27:52.235Z,80.40
2023-01-10T11:33:00.709Z,80.26
2023-01-10T11:38:17.101Z,81.57
2023-01-10T11:43:41.515Z,80.31
2023-01-10T11:49:04.901Z,80.08
2023-01-10T11:54:11.654Z,81.38
2023-01-10T11:59:16.604Z,81.01
2023-01-10T12:04:21.149Z,80.17
2023-01-10T12:09:42.228Z,79.97
2023-01-10T12:14:44.314Z,80.50
2023-01-10T12:19:45.794Z,81.03
2023-01-10T12:24:51.097Z,81.13
2023-01-10T12:30:11.598Z,80.75
2023-01-10T12:35:20.848Z,81.00
2023-01-10T12:40:37.322Z,80.39
2023-01-10T12:45:56.831Z,81.12
2023-01-10T12:51:04.745Z,82.21
2023-01-10T12:56:11.514Z,80.48
2023-01-10T13:01:17.244Z,82.35
2023-01-10T13:06:31.442Z,81.37
2023-01-10T13:11:40.422Z,80.98
2023-01-10T13:16:52.676Z,81.23
2023-01-10T13:22:34.985Z,80.03
2023-01-10T13:27:36.516Z,81.75
2023-01-10T13:32:38.905Z,81.83
2023-01-10T13:37:43.113Z,83.18
2023-01-10T13:43:03.189Z,81.96
2023-01-10T13:48:05.595Z,82.45
2023-01-10T13:53:08.450Z,82.58
2023-01-10T13:58:09.811Z,83.22
2023-01-10T14:03:37.731Z,83.61
2023-01-10T14:08:40.691Z,83.57
2023-01-10T14:13:52.945Z,85.22
2023-01-10T14:18:54.531Z,85.91
2023-01-10T14:23:57.958Z,86.45
2023-01-10T14:29:02.831Z,85.46
2023-01-10T14:34:06.107Z,85.95
2023-01-10T14:39:08.131Z,85.89
2023-01-10T14:44:24.088Z,86.31
2023-01-10T14:49:35.219Z,85.49
2023-01-10T14:54:36.688Z,84.82
2023-01-10T14:59:38.724Z,85.01
2023-01-10T15:04:52.163Z,84.76
2023-01-10T15:09:57.248Z,84.67
2023-01-10T15:15:11.749Z,85.18
2023-01-10T15:20:17.701Z,86.58
2023-01-10T15:25:19.061Z,86.05
2023-01-10T15:30:23.054Z,85.97
2023-01-10T15:35:36.149Z,86.40
2023-01-10T15:40:40.063Z,87.63
2023-01-10T15:45:42.820Z,87.00
2023-01-10T15:51:01.701Z,87.62
2023-01-10T15:56:15.077Z,87.73
2023-01-10T16:01:16.927Z,88.02
2023-01-10T16:06:29.751Z,88.15
2023-01-10T16:12:08.375Z,87.77
2023-01-10T16:17:11.395Z,87.54
2023-01-10T16:22:17.863Z,86.88
2023-01-10T16:27:19.358Z,86.74
2023-01-10T16:32:20.819Z,85.98
2023-01-10T16:37:22.278Z,86.28
2023-01-10T16:42:42.043Z,85.42
2023-01-10T16:47:43.454Z,85.02
2023-01-10T16:52:44.862Z,85.86
2023-01-10T16:57:47.911Z,85.88
2023-01-10T17:02:49.441Z,86.13
2023-01-10T17:07:50.888Z,85.81
2023-01-10T17:12:52.487Z,86.17
2023-01-10T17:17:53.973Z,86.07
2023-01-10T17:22:55.385Z,86.08
2023-01-10T17:27:56.888Z,86.25
2023-01-10T17:32:58.689Z,86.47
2023-01-10T17:38:00.107Z,84.89
2023-01-10T17:43:01.552Z,84.90
2023-01-10T17:48:02.983Z,85.24
2023-01-10T17:53:05.127Z,84.96
2023-01-10T17:58:06.606Z,84.70
2023-01-10T18:03:08.717Z,83.97
2023-01-10T18:08:10.161Z,82.98
2023-01-10T18:13:12.678Z,83.79
2023-01-10T18:18:14.827Z,84.32
2023-01-10T18:23:23.503Z,84.29
2023-01-10T18:28:39.536Z,84.16
2023-01-10T18:33:42.309Z,83.99
2023-01-10T18:38:44.487Z,83.81
2023-01-10T18:43:46.336Z,83.99
2023-01-10T18:48:51.292Z,83.85
2023-01-10T18:53:53.150Z,83.19
2023-01-10T18:58:55.682Z,83.52
2023-01-10T19:03:57.298Z,83.60
2023-01-10T19:08:58.726Z,83.57
2023-01-10T19:14:00.211Z,83.63
2023-01-10T19:19:09.312Z,83.24
2023-01-10T19:24:29.627Z,83.59
2023-01-10T19:29:31.522Z,82.84
2023-01-10T19:34:33.057Z,83.56
2023-01-10T19:39:35.217Z,83.61
2023-01-10T19:44:36.712Z,83.74
2023-01-10T19:49:38.153Z,83.72
2023-01-10T19:54:39.680Z,83.44
2023-01-10T19:59:41.771Z,82.72
2023-01-10T20:04:43.237Z,83.54
2023-01-10T20:09:44.638Z,83.47
2023-01-10T20:14:46.129Z,83.61
2023-01-10T20:19:48.638Z,83.59
2023-01-10T20:24:50.215Z,83.19
2023-01-10T20:29:51.646Z,82.99
2023-01-10T20:34:53.098Z,82.76
2023-01-10T20:39:55.191Z,82.95
2023-01-10T20:44:56.640Z,82.80
2023-01-10T20:49:58.063Z,82.82
2023-01-10T20:54:59.488Z,82.88
2023-01-10T21:00:00.951Z,82.77
2023-01-10T21:05:02.454Z,82.91
2023-01-10T21:10:04.132Z,82.80
2023-01-10T21:15:05.921Z,83.14
2023-01-10T21:20:08.667Z,82.92
2023-01-10T21:25:10.129Z,83.06
2023-01-10T21:30:12.155Z,83.31
2023-01-10T21:35:13.824Z,83.42
2023-01-10T21:40:15.565Z,83.35
2023-01-10T21:45:18.252Z,83.22
2023-01-10T21:50:22.344Z,83.30
2023-01-10T21:55:24.077Z,83.33
2023-01-10T22:00:25.701Z,83.35
2023-01-10T22:05:27.313Z,83.24
2023-01-10T22:10:30.167Z,83.34
2023-01-10T22:15:31.970Z,83.20
2023-01-10T22:20:33.434Z,83.04
2023-01-10T22:25:34.911Z,83.09
2023-01-10T22:30:36.356Z,83.29
2023-01-10T22:35:37.776Z,83.53
2023-01-10T22:40:39.214Z,83.74
2023-01-10T22:45:42.050Z,83.51
2023-01-10T22:50:49.000Z,83.92
2023-01-10T22:55:50.487Z,83.38
2023-01-10T23:06:11.868Z,84.14
2023-01-10T23:11:16.365Z,84.05
2023-01-10T23:16:22.053Z,83.75
2023-01-10T23:21:25.143Z,83.78
2023-01-10T23:26:26.651Z,82.63
2023-01-10T23:31:29.609Z,82.57
2023-01-10T23:36:31.376Z,82.27
2023-01-10T23:41:32.808Z,81.73
2023-01-10T23:46:34.237Z,81.29
2023-01-10T23:51:37.362Z,80.56
2023-01-10T23:56:38.774Z,80.21
